sensor_id;sensor_type;location;lat;lon;timestamp;pressure;altitude;pressure_sealevel;temperature;humidity
64908;BME280;69061;52.236;5.188;2023-05-03T00:01:30;102949.31;;;9.06;68.65
64908;BME280;69061;52.236;5.188;2023-05-03T00:03:56;102953.66;;;9.02;70.36
64908;BME280;69061;52.236;5.188;2023-05-03T00:06:23;102958.78;;;8.98;67.51
64908;BME280;69061;52.236;5.188;2023-05-03T00:08:51;102954.97;;;8.90;66.72
64908;BME280;69061;52.236;5.188;2023-05-03T00:11:17;102952.22;;;8.82;66.42
64908;BME280;69061;52.236;5.188;2023-05-03T00:13:44;102951.06;;;8.74;66.29
64908;BME280;69061;52.236;5.188;2023-05-03T00:16:10;102953.13;;;8.63;66.92
64908;BME280;69061;52.236;5.188;2023-05-03T00:18:37;102956.09;;;8.62;67.16
64908;BME280;69061;52.236;5.188;2023-05-03T00:21:04;102955.41;;;8.56;68.80
64908;BME280;69061;52.236;5.188;2023-05-03T00:23:30;102954.53;;;8.47;68.61
64908;BME280;69061;52.236;5.188;2023-05-03T00:25:58;102961.47;;;8.42;68.64
64908;BME280;69061;52.236;5.188;2023-05-03T00:28:25;102958.66;;;8.39;69.28
64908;BME280;69061;52.236;5.188;2023-05-03T00:30:52;102953.44;;;8.34;68.46
64908;BME280;69061;52.236;5.188;2023-05-03T00:33:18;102950.28;;;8.32;68.59
64908;BME280;69061;52.236;5.188;2023-05-03T00:35:45;102958.84;;;8.29;68.36
64908;BME280;69061;52.236;5.188;2023-05-03T00:38:11;102952.56;;;8.24;70.16
64908;BME280;69061;52.236;5.188;2023-05-03T00:40:39;102942.44;;;8.26;70.58
64908;BME280;69061;52.236;5.188;2023-05-03T00:43:10;102956.28;;;8.23;68.08
64908;BME280;69061;52.236;5.188;2023-05-03T00:45:37;102956.06;;;8.20;70.13
64908;BME280;69061;52.236;5.188;2023-05-03T00:48:03;102946.88;;;8.17;69.84
64908;BME280;69061;52.236;5.188;2023-05-03T00:50:30;102955.97;;;8.11;69.36
64908;BME280;69061;52.236;5.188;2023-05-03T00:52:57;102945.16;;;8.07;70.32
64908;BME280;69061;52.236;5.188;2023-05-03T00:55:23;102952.63;;;8.05;70.25
64908;BME280;69061;52.236;5.188;2023-05-03T00:57:51;102945.06;;;7.99;70.01
64908;BME280;69061;52.236;5.188;2023-05-03T01:00:19;102947.72;;;7.99;71.98
64908;BME280;69061;52.236;5.188;2023-05-03T01:02:46;102957.72;;;8.02;72.36
64908;BME280;69061;52.236;5.188;2023-05-03T01:05:14;102959.88;;;8.00;71.48
64908;BME280;69061;52.236;5.188;2023-05-03T01:07:49;102945.94;;;7.94;72.34
64908;BME280;69061;52.236;5.188;2023-05-03T01:10:23;102952.88;;;7.90;71.78
64908;BME280;69061;52.236;5.188;2023-05-03T01:12:55;102948.19;;;7.87;72.37
64908;BME280;69061;52.236;5.188;2023-05-03T01:15:35;102949.16;;;7.91;76.06
64908;BME280;69061;52.236;5.188;2023-05-03T01:18:06;102946.22;;;7.92;74.80
64908;BME280;69061;52.236;5.188;2023-05-03T01:20:37;102941.91;;;7.97;72.16
64908;BME280;69061;52.236;5.188;2023-05-03T01:23:11;102952.88;;;7.90;71.42
64908;BME280;69061;52.236;5.188;2023-05-03T01:25:41;102945.84;;;7.85;74.28
64908;BME280;69061;52.236;5.188;2023-05-03T01:28:07;102953.25;;;7.83;72.57
64908;BME280;69061;52.236;5.188;2023-05-03T01:30:35;102948.09;;;7.78;71.24
64908;BME280;69061;52.236;5.188;2023-05-03T01:33:07;102941.50;;;7.75;70.42
64908;BME280;69061;52.236;5.188;2023-05-03T01:35:40;102946.38;;;7.68;72.41
64908;BME280;69061;52.236;5.188;2023-05-03T01:38:07;102939.41;;;7.72;75.10
64908;BME280;69061;52.236;5.188;2023-05-03T01:40:38;102945.63;;;7.82;76.00
64908;BME280;69061;52.236;5.188;2023-05-03T01:43:08;102935.47;;;7.89;75.33
64908;BME280;69061;52.236;5.188;2023-05-03T01:45:36;102940.94;;;7.92;74.77
64908;BME280;69061;52.236;5.188;2023-05-03T01:48:08;102947.22;;;7.97;75.53
64908;BME280;69061;52.236;5.188;2023-05-03T01:50:34;102944.88;;;7.95;73.18
64908;BME280;69061;52.236;5.188;2023-05-03T01:53:01;102943.09;;;7.90;74.19
64908;BME280;69061;52.236;5.188;2023-05-03T01:55:27;102932.09;;;7.83;72.78
64908;BME280;69061;52.236;5.188;2023-05-03T01:57:54;102943.06;;;7.76;71.97
64908;BME280;69061;52.236;5.188;2023-05-03T02:00:22;102941.38;;;7.67;71.48
64908;BME280;69061;52.236;5.188;2023-05-03T02:02:49;102938.72;;;7.67;73.84
64908;BME280;69061;52.236;5.188;2023-05-03T02:05:15;102931.84;;;7.66;71.75
64908;BME280;69061;52.236;5.188;2023-05-03T02:07:42;102938.03;;;7.61;71.87
64908;BME280;69061;52.236;5.188;2023-05-03T02:10:09;102934.38;;;7.57;71.35
64908;BME280;69061;52.236;5.188;2023-05-03T02:12:38;102925.75;;;7.51;74.50
64908;BME280;69061;52.236;5.188;2023-05-03T02:15:06;102873.56;;;7.24;73.22
64908;BME280;69061;52.236;5.188;2023-05-03T02:17:34;102912.31;;;7.48;71.76
64908;BME280;69061;52.236;5.188;2023-05-03T02:20:01;102901.81;;;7.42;71.51
64908;BME280;69061;52.236;5.188;2023-05-03T02:22:30;102894.16;;;7.41;71.56
64908;BME280;69061;52.236;5.188;2023-05-03T02:24:57;102891.88;;;7.34;71.43
64908;BME280;69061;52.236;5.188;2023-05-03T02:27:23;102898.53;;;7.32;72.38
64908;BME280;69061;52.236;5.188;2023-05-03T02:29:51;102889.31;;;7.29;71.79
64908;BME280;69061;52.236;5.188;2023-05-03T02:32:17;102883.75;;;7.31;73.42
64908;BME280;69061;52.236;5.188;2023-05-03T02:34:47;102884.53;;;7.31;72.82
64908;BME280;69061;52.236;5.188;2023-05-03T02:37:14;102882.19;;;7.30;74.65
64908;BME280;69061;52.236;5.188;2023-05-03T02:39:40;102878.25;;;7.27;73.27
64908;BME280;69061;52.236;5.188;2023-05-03T02:42:07;102878.03;;;7.23;73.31
64908;BME280;69061;52.236;5.188;2023-05-03T02:44:34;102887.25;;;7.26;76.78
64908;BME280;69061;52.236;5.188;2023-05-03T02:47:00;102887.94;;;7.32;75.88
64908;BME280;69061;52.236;5.188;2023-05-03T02:49:27;102887.47;;;7.30;74.92
64908;BME280;69061;52.236;5.188;2023-05-03T02:51:55;102897.88;;;7.40;79.94
64908;BME280;69061;52.236;5.188;2023-05-03T02:54:22;102898.41;;;7.56;80.74
64908;BME280;69061;52.236;5.188;2023-05-03T02:56:48;102900.38;;;7.64;80.27
64908;BME280;69061;52.236;5.188;2023-05-03T02:59:15;102908.75;;;7.71;80.46
64908;BME280;69061;52.236;5.188;2023-05-03T03:01:42;102910.03;;;7.74;80.37
64908;BME280;69061;52.236;5.188;2023-05-03T03:04:08;102918.16;;;7.78;79.92
64908;BME280;69061;52.236;5.188;2023-05-03T03:06:35;102924.34;;;7.73;76.03
64908;BME280;69061;52.236;5.188;2023-05-03T03:09:02;102920.88;;;7.58;73.56
64908;BME280;69061;52.236;5.188;2023-05-03T03:11:29;102917.91;;;7.46;73.52
64908;BME280;69061;52.236;5.188;2023-05-03T03:13:55;102915.97;;;7.33;73.39
64908;BME280;69061;52.236;5.188;2023-05-03T03:16:22;102919.28;;;7.24;73.75
64908;BME280;69061;52.236;5.188;2023-05-03T03:18:48;102918.59;;;7.19;73.92
64908;BME280;69061;52.236;5.188;2023-05-03T03:21:15;102915.78;;;7.10;73.18
64908;BME280;69061;52.236;5.188;2023-05-03T03:23:41;102919.31;;;7.05;73.39
64908;BME280;69061;52.236;5.188;2023-05-03T03:26:09;102922.78;;;7.01;73.93
64908;BME280;69061;52.236;5.188;2023-05-03T03:28:36;102915.50;;;6.93;74.14
64908;BME280;69061;52.236;5.188;2023-05-03T03:31:03;102917.44;;;6.87;73.62
64908;BME280;69061;52.236;5.188;2023-05-03T03:33:29;102920.94;;;6.82;73.07
64908;BME280;69061;52.236;5.188;2023-05-03T03:35:56;102919.13;;;6.78;74.49
64908;BME280;69061;52.236;5.188;2023-05-03T03:38:22;102921.66;;;6.69;74.49
64908;BME280;69061;52.236;5.188;2023-05-03T03:40:49;102924.63;;;6.62;73.78
64908;BME280;69061;52.236;5.188;2023-05-03T03:43:18;102927.03;;;6.58;73.10
64908;BME280;69061;52.236;5.188;2023-05-03T03:45:44;102932.63;;;6.57;74.70
64908;BME280;69061;52.236;5.188;2023-05-03T03:48:11;102930.25;;;6.55;73.22
64908;BME280;69061;52.236;5.188;2023-05-03T03:50:37;102927.09;;;6.53;72.49
64908;BME280;69061;52.236;5.188;2023-05-03T03:53:04;102927.19;;;6.48;72.71
64908;BME280;69061;52.236;5.188;2023-05-03T03:55:30;102919.03;;;6.45;74.29
64908;BME280;69061;52.236;5.188;2023-05-03T03:57:57;102920.38;;;6.42;73.18
64908;BME280;69061;52.236;5.188;2023-05-03T04:00:25;102922.00;;;6.38;74.00
64908;BME280;69061;52.236;5.188;2023-05-03T04:02:52;102929.97;;;6.33;75.10
64908;BME280;69061;52.236;5.188;2023-05-03T04:05:18;102933.09;;;6.40;78.15
64908;BME280;69061;52.236;5.188;2023-05-03T04:07:45;102930.94;;;6.42;76.34
64908;BME280;69061;52.236;5.188;2023-05-03T04:10:11;102929.41;;;6.36;75.00
64908;BME280;69061;52.236;5.188;2023-05-03T04:12:38;102936.13;;;6.28;73.60
64908;BME280;69061;52.236;5.188;2023-05-03T04:15:05;102937.75;;;6.24;73.05
64908;BME280;69061;52.236;5.188;2023-05-03T04:17:34;102944.94;;;6.18;73.40
64908;BME280;69061;52.236;5.188;2023-05-03T04:20:00;102947.28;;;6.20;73.69
64908;BME280;69061;52.236;5.188;2023-05-03T04:22:29;102946.53;;;6.14;73.88
64908;BME280;69061;52.236;5.188;2023-05-03T04:24:56;102956.59;;;6.12;73.80
64908;BME280;69061;52.236;5.188;2023-05-03T04:27:25;102956.59;;;6.12;73.94
64908;BME280;69061;52.236;5.188;2023-05-03T04:29:52;102962.22;;;6.05;73.42
64908;BME280;69061;52.236;5.188;2023-05-03T04:32:18;102963.84;;;6.01;74.54
64908;BME280;69061;52.236;5.188;2023-05-03T04:34:48;102972.78;;;6.05;73.42
64908;BME280;69061;52.236;5.188;2023-05-03T04:37:16;102973.63;;;6.01;72.94
64908;BME280;69061;52.236;5.188;2023-05-03T04:39:43;102966.47;;;6.01;72.57
64908;BME280;69061;52.236;5.188;2023-05-03T04:42:10;102976.25;;;5.96;72.85
64908;BME280;69061;52.236;5.188;2023-05-03T04:44:37;102973.34;;;5.97;73.03
64908;BME280;69061;52.236;5.188;2023-05-03T04:47:03;102970.47;;;5.99;73.05
64908;BME280;69061;52.236;5.188;2023-05-03T04:49:30;102964.63;;;6.02;72.56
64908;BME280;69061;52.236;5.188;2023-05-03T04:51:58;102979.16;;;5.99;73.20
64908;BME280;69061;52.236;5.188;2023-05-03T04:54:25;102975.44;;;6.00;73.86
64908;BME280;69061;52.236;5.188;2023-05-03T04:56:52;102967.50;;;6.05;73.89
64908;BME280;69061;52.236;5.188;2023-05-03T04:59:18;102978.81;;;6.06;74.51
64908;BME280;69061;52.236;5.188;2023-05-03T05:01:45;102974.03;;;6.13;76.25
64908;BME280;69061;52.236;5.188;2023-05-03T05:04:12;102967.91;;;6.18;73.80
64908;BME280;69061;52.236;5.188;2023-05-03T05:06:38;102977.13;;;6.20;72.72
64908;BME280;69061;52.236;5.188;2023-05-03T05:09:19;102993.47;;;6.22;71.85
64908;BME280;69061;52.236;5.188;2023-05-03T05:11:45;102985.00;;;6.26;72.27
64908;BME280;69061;52.236;5.188;2023-05-03T05:14:12;102987.59;;;6.31;73.28
64908;BME280;69061;52.236;5.188;2023-05-03T05:16:38;102990.69;;;6.38;72.84
64908;BME280;69061;52.236;5.188;2023-05-03T05:19:05;102983.19;;;6.45;73.23
64908;BME280;69061;52.236;5.188;2023-05-03T05:21:31;102988.94;;;6.52;72.66
64908;BME280;69061;52.236;5.188;2023-05-03T05:23:58;102982.03;;;6.56;72.57
64908;BME280;69061;52.236;5.188;2023-05-03T05:26:26;102982.47;;;6.64;72.65
64908;BME280;69061;52.236;5.188;2023-05-03T05:28:53;102970.50;;;6.71;72.41
64908;BME280;69061;52.236;5.188;2023-05-03T05:31:20;102980.72;;;6.78;72.46
64908;BME280;69061;52.236;5.188;2023-05-03T05:33:46;102974.53;;;6.88;72.94
64908;BME280;69061;52.236;5.188;2023-05-03T05:36:13;102977.81;;;6.99;72.63
64908;BME280;69061;52.236;5.188;2023-05-03T05:38:40;102983.75;;;7.10;72.82
64908;BME280;69061;52.236;5.188;2023-05-03T05:41:07;102985.19;;;7.21;74.39
64908;BME280;69061;52.236;5.188;2023-05-03T05:43:35;102978.63;;;7.37;73.64
64908;BME280;69061;52.236;5.188;2023-05-03T05:46:02;102978.59;;;7.56;73.95
64908;BME280;69061;52.236;5.188;2023-05-03T05:48:29;102986.28;;;7.72;74.71
64908;BME280;69061;52.236;5.188;2023-05-03T05:50:55;102981.75;;;7.91;76.25
64908;BME280;69061;52.236;5.188;2023-05-03T05:53:22;102978.91;;;8.16;76.34
64908;BME280;69061;52.236;5.188;2023-05-03T05:55:49;102990.84;;;8.46;74.82
64908;BME280;69061;52.236;5.188;2023-05-03T05:58:15;102989.78;;;8.61;73.60
64908;BME280;69061;52.236;5.188;2023-05-03T06:00:43;102996.84;;;8.80;74.64
64908;BME280;69061;52.236;5.188;2023-05-03T06:03:13;103000.91;;;9.00;72.50
64908;BME280;69061;52.236;5.188;2023-05-03T06:05:39;102998.25;;;9.14;72.70
64908;BME280;69061;52.236;5.188;2023-05-03T06:08:06;102999.78;;;9.29;71.61
64908;BME280;69061;52.236;5.188;2023-05-03T06:10:33;102998.94;;;9.42;71.16
64908;BME280;69061;52.236;5.188;2023-05-03T06:12:59;103002.16;;;9.53;69.75
64908;BME280;69061;52.236;5.188;2023-05-03T06:15:27;102991.56;;;9.61;68.88
64908;BME280;69061;52.236;5.188;2023-05-03T06:17:55;102996.03;;;9.75;68.48
64908;BME280;69061;52.236;5.188;2023-05-03T06:20:21;102985.81;;;9.91;68.36
64908;BME280;69061;52.236;5.188;2023-05-03T06:22:48;102990.56;;;10.03;67.12
64908;BME280;69061;52.236;5.188;2023-05-03T06:25:15;102996.41;;;10.14;67.62
64908;BME280;69061;52.236;5.188;2023-05-03T06:27:42;102993.63;;;10.27;66.47
64908;BME280;69061;52.236;5.188;2023-05-03T06:30:09;102994.59;;;10.32;65.15
64908;BME280;69061;52.236;5.188;2023-05-03T06:32:37;102998.97;;;10.27;64.06
64908;BME280;69061;52.236;5.188;2023-05-03T06:35:06;102996.31;;;10.27;64.33
64908;BME280;69061;52.236;5.188;2023-05-03T06:37:33;102991.63;;;10.33;64.68
64908;BME280;69061;52.236;5.188;2023-05-03T06:40:00;102989.31;;;10.40;65.21
64908;BME280;69061;52.236;5.188;2023-05-03T06:42:26;102991.06;;;10.45;63.82
64908;BME280;69061;52.236;5.188;2023-05-03T06:44:53;102988.88;;;10.47;65.64
64908;BME280;69061;52.236;5.188;2023-05-03T06:47:19;102985.50;;;10.55;64.87
64908;BME280;69061;52.236;5.188;2023-05-03T06:49:46;102980.63;;;10.66;64.91
64908;BME280;69061;52.236;5.188;2023-05-03T06:52:14;102986.63;;;10.81;64.49
64908;BME280;69061;52.236;5.188;2023-05-03T06:54:40;102992.09;;;10.84;61.89
64908;BME280;69061;52.236;5.188;2023-05-03T06:57:07;102986.94;;;10.88;62.48
64908;BME280;69061;52.236;5.188;2023-05-03T06:59:34;102975.19;;;10.80;61.00
64908;BME280;69061;52.236;5.188;2023-05-03T07:02:01;102969.88;;;10.80;61.68
64908;BME280;69061;52.236;5.188;2023-05-03T07:04:28;102961.75;;;10.85;60.14
64908;BME280;69061;52.236;5.188;2023-05-03T07:06:55;102963.63;;;10.85;59.80
64908;BME280;69061;52.236;5.188;2023-05-03T07:09:23;102962.97;;;10.88;60.52
64908;BME280;69061;52.236;5.188;2023-05-03T07:11:50;102966.13;;;10.99;61.58
64908;BME280;69061;52.236;5.188;2023-05-03T07:14:16;102968.16;;;11.10;61.33
64908;BME280;69061;52.236;5.188;2023-05-03T07:16:43;102954.84;;;11.28;57.90
64908;BME280;69061;52.236;5.188;2023-05-03T07:19:10;102953.47;;;11.04;58.67
64908;BME280;69061;52.236;5.188;2023-05-03T07:21:37;102953.47;;;11.04;58.60
64908;BME280;69061;52.236;5.188;2023-05-03T07:24:04;102956.13;;;11.13;59.15
64908;BME280;69061;52.236;5.188;2023-05-03T07:26:33;102946.72;;;11.24;58.29
64908;BME280;69061;52.236;5.188;2023-05-03T07:29:02;102947.97;;;11.36;57.96
64908;BME280;69061;52.236;5.188;2023-05-03T07:31:29;102935.88;;;11.47;58.04
64908;BME280;69061;52.236;5.188;2023-05-03T07:33:56;102942.44;;;11.50;56.32
64908;BME280;69061;52.236;5.188;2023-05-03T07:36:22;102940.41;;;11.55;57.20
64908;BME280;69061;52.236;5.188;2023-05-03T07:38:49;102941.97;;;11.65;57.31
64908;BME280;69061;52.236;5.188;2023-05-03T07:41:15;102939.91;;;11.71;55.42
64908;BME280;69061;52.236;5.188;2023-05-03T07:43:43;102932.88;;;11.57;55.72
64908;BME280;69061;52.236;5.188;2023-05-03T07:46:10;102928.31;;;11.67;55.77
64908;BME280;69061;52.236;5.188;2023-05-03T07:48:36;102925.00;;;11.78;53.55
64908;BME280;69061;52.236;5.188;2023-05-03T07:51:03;102933.13;;;11.82;52.65
64908;BME280;69061;52.236;5.188;2023-05-03T07:53:30;102930.34;;;11.70;52.72
64908;BME280;69061;52.236;5.188;2023-05-03T07:55:59;102929.28;;;11.44;51.59
64908;BME280;69061;52.236;5.188;2023-05-03T07:58:26;102939.91;;;11.71;53.68
64908;BME280;69061;52.236;5.188;2023-05-03T08:00:53;102923.97;;;11.92;53.70
64908;BME280;69061;52.236;5.188;2023-05-03T08:03:20;102926.75;;;12.13;53.73
64908;BME280;69061;52.236;5.188;2023-05-03T08:05:48;102925.16;;;12.42;53.68
64908;BME280;69061;52.236;5.188;2023-05-03T08:08:14;102926.88;;;12.68;52.84
64908;BME280;69061;52.236;5.188;2023-05-03T08:10:41;102924.06;;;12.85;50.39
64908;BME280;69061;52.236;5.188;2023-05-03T08:13:07;102919.38;;;12.61;50.02
64908;BME280;69061;52.236;5.188;2023-05-03T08:15:34;102917.97;;;12.63;50.61
64908;BME280;69061;52.236;5.188;2023-05-03T08:18:02;102907.69;;;12.74;50.82
64908;BME280;69061;52.236;5.188;2023-05-03T08:20:29;102903.31;;;12.91;50.83
64908;BME280;69061;52.236;5.188;2023-05-03T08:22:55;102895.25;;;13.12;50.69
64908;BME280;69061;52.236;5.188;2023-05-03T08:25:22;102900.19;;;13.22;48.49
64908;BME280;69061;52.236;5.188;2023-05-03T08:27:50;102902.75;;;13.19;48.25
64908;BME280;69061;52.236;5.188;2023-05-03T08:30:17;102896.81;;;12.79;47.16
64908;BME280;69061;52.236;5.188;2023-05-03T08:32:44;102904.72;;;13.09;48.74
64908;BME280;69061;52.236;5.188;2023-05-03T08:35:12;102920.47;;;13.23;47.66
64908;BME280;69061;52.236;5.188;2023-05-03T08:37:39;102916.22;;;13.22;47.68
64908;BME280;69061;52.236;5.188;2023-05-03T08:40:07;102924.84;;;13.40;48.12
64908;BME280;69061;52.236;5.188;2023-05-03T08:42:38;102920.69;;;13.30;47.09
64908;BME280;69061;52.236;5.188;2023-05-03T08:45:08;102924.22;;;13.22;47.56
64908;BME280;69061;52.236;5.188;2023-05-03T08:47:36;102932.88;;;13.40;48.46
64908;BME280;69061;52.236;5.188;2023-05-03T08:50:06;102930.38;;;13.69;48.42
64908;BME280;69061;52.236;5.188;2023-05-03T08:52:34;102936.72;;;14.01;48.62
64908;BME280;69061;52.236;5.188;2023-05-03T08:55:01;102930.13;;;14.23;47.84
64908;BME280;69061;52.236;5.188;2023-05-03T08:57:29;102923.44;;;14.29;45.82
64908;BME280;69061;52.236;5.188;2023-05-03T08:59:56;102935.59;;;14.39;45.89
64908;BME280;69061;52.236;5.188;2023-05-03T09:02:25;102933.44;;;14.57;46.56
64908;BME280;69061;52.236;5.188;2023-05-03T09:04:52;102935.84;;;14.87;47.65
64908;BME280;69061;52.236;5.188;2023-05-03T09:07:19;102932.47;;;15.19;46.99
64908;BME280;69061;52.236;5.188;2023-05-03T09:09:47;102934.09;;;15.23;44.77
64908;BME280;69061;52.236;5.188;2023-05-03T09:12:32;102939.91;;;15.25;43.25
64908;BME280;69061;52.236;5.188;2023-05-03T09:15:00;102928.97;;;15.02;43.73
64908;BME280;69061;52.236;5.188;2023-05-03T09:17:29;102934.69;;;15.01;44.69
64908;BME280;69061;52.236;5.188;2023-05-03T09:19:56;102928.41;;;15.25;44.57
64908;BME280;69061;52.236;5.188;2023-05-03T09:22:26;102928.00;;;15.39;43.83
64908;BME280;69061;52.236;5.188;2023-05-03T09:24:55;102922.81;;;15.62;43.96
64908;BME280;69061;52.236;5.188;2023-05-03T09:27:23;102927.97;;;15.83;44.27
64908;BME280;69061;52.236;5.188;2023-05-03T09:29:50;102932.00;;;16.09;43.32
64908;BME280;69061;52.236;5.188;2023-05-03T09:32:17;102929.78;;;16.30;43.11
64908;BME280;69061;52.236;5.188;2023-05-03T09:34:44;102927.81;;;16.47;42.39
64908;BME280;69061;52.236;5.188;2023-05-03T09:37:12;102927.09;;;16.50;41.54
64908;BME280;69061;52.236;5.188;2023-05-03T09:39:40;102935.59;;;16.72;42.06
64908;BME280;69061;52.236;5.188;2023-05-03T09:42:12;102928.50;;;16.83;41.48
64908;BME280;69061;52.236;5.188;2023-05-03T09:44:40;102929.53;;;16.94;40.63
64908;BME280;69061;52.236;5.188;2023-05-03T09:47:07;102929.38;;;17.07;41.33
64908;BME280;69061;52.236;5.188;2023-05-03T09:49:34;102925.56;;;17.08;40.84
64908;BME280;69061;52.236;5.188;2023-05-03T09:52:02;102928.53;;;17.03;40.33
64908;BME280;69061;52.236;5.188;2023-05-03T09:54:29;102930.22;;;17.11;40.65
64908;BME280;69061;52.236;5.188;2023-05-03T09:56:56;102933.31;;;17.13;40.72
64908;BME280;69061;52.236;5.188;2023-05-03T09:59:24;102918.75;;;17.14;40.07
64908;BME280;69061;52.236;5.188;2023-05-03T10:01:55;102918.06;;;17.17;41.39
64908;BME280;69061;52.236;5.188;2023-05-03T10:04:24;102919.59;;;17.41;41.01
64908;BME280;69061;52.236;5.188;2023-05-03T10:06:52;102902.13;;;17.55;40.21
64908;BME280;69061;52.236;5.188;2023-05-03T10:09:30;102906.19;;;17.68;39.65
64908;BME280;69061;52.236;5.188;2023-05-03T10:11:59;102901.81;;;17.83;39.61
64908;BME280;69061;52.236;5.188;2023-05-03T10:14:28;102917.63;;;17.88;38.88
64908;BME280;69061;52.236;5.188;2023-05-03T10:16:58;102918.25;;;18.01;39.02
64908;BME280;69061;52.236;5.188;2023-05-03T10:19:28;102912.28;;;18.15;38.83
64908;BME280;69061;52.236;5.188;2023-05-03T10:22:02;102903.59;;;18.29;38.25
64908;BME280;69061;52.236;5.188;2023-05-03T10:24:30;102910.00;;;18.47;39.07
64908;BME280;69061;52.236;5.188;2023-05-03T10:26:57;102900.53;;;18.61;37.82
64908;BME280;69061;52.236;5.188;2023-05-03T10:29:47;102906.03;;;18.72;37.09
64908;BME280;69061;52.236;5.188;2023-05-03T10:32:29;102905.72;;;18.77;36.89
64908;BME280;69061;52.236;5.188;2023-05-03T10:34:56;102918.81;;;18.82;37.33
64908;BME280;69061;52.236;5.188;2023-05-03T10:37:25;102906.44;;;18.74;36.76
64908;BME280;69061;52.236;5.188;2023-05-03T10:39:53;102907.25;;;18.78;37.39
64908;BME280;69061;52.236;5.188;2023-05-03T10:42:21;102900.72;;;18.79;37.52
64908;BME280;69061;52.236;5.188;2023-05-03T10:44:53;102894.59;;;18.82;36.69
64908;BME280;69061;52.236;5.188;2023-05-03T10:47:22;102908.22;;;18.96;37.83
64908;BME280;69061;52.236;5.188;2023-05-03T10:52:47;102900.31;;;19.14;36.92
64908;BME280;69061;52.236;5.188;2023-05-03T10:55:15;102895.81;;;19.26;37.64
64908;BME280;69061;52.236;5.188;2023-05-03T10:57:43;102886.66;;;19.41;36.54
64908;BME280;69061;52.236;5.188;2023-05-03T11:00:13;102890.22;;;19.52;37.00
64908;BME280;69061;52.236;5.188;2023-05-03T11:02:57;102873.63;;;19.50;36.53
64908;BME280;69061;52.236;5.188;2023-05-03T11:05:30;102870.22;;;19.57;36.77
64908;BME280;69061;52.236;5.188;2023-05-03T11:08:07;102867.19;;;19.62;36.94
64908;BME280;69061;52.236;5.188;2023-05-03T11:10:34;102861.00;;;19.62;36.54
64908;BME280;69061;52.236;5.188;2023-05-03T11:13:00;102858.75;;;19.67;36.68
64908;BME280;69061;52.236;5.188;2023-05-03T11:15:30;102856.44;;;19.73;36.84
64908;BME280;69061;52.236;5.188;2023-05-03T11:17:57;102862.69;;;19.81;36.44
64908;BME280;69061;52.236;5.188;2023-05-03T11:20:24;102853.72;;;19.69;34.90
64908;BME280;69061;52.236;5.188;2023-05-03T11:22:51;102847.06;;;19.00;34.37
64908;BME280;69061;52.236;5.188;2023-05-03T11:25:18;102862.44;;;18.96;36.52
64908;BME280;69061;52.236;5.188;2023-05-03T11:27:45;102857.84;;;19.00;37.64
64908;BME280;69061;52.236;5.188;2023-05-03T11:30:12;102848.28;;;19.10;37.13
64908;BME280;69061;52.236;5.188;2023-05-03T11:32:41;102856.09;;;19.19;36.53
64908;BME280;69061;52.236;5.188;2023-05-03T11:35:08;102855.72;;;19.21;36.27
64908;BME280;69061;52.236;5.188;2023-05-03T11:37:35;102851.88;;;19.22;36.30
64908;BME280;69061;52.236;5.188;2023-05-03T11:40:03;102843.03;;;19.25;36.63
64908;BME280;69061;52.236;5.188;2023-05-03T11:42:31;102843.13;;;19.39;36.58
64908;BME280;69061;52.236;5.188;2023-05-03T11:44:59;102843.25;;;19.57;36.92
64908;BME280;69061;52.236;5.188;2023-05-03T11:47:25;102833.28;;;19.68;36.43
64908;BME280;69061;52.236;5.188;2023-05-03T11:49:54;102842.97;;;19.77;35.89
64908;BME280;69061;52.236;5.188;2023-05-03T11:52:22;102842.97;;;19.77;36.17
64908;BME280;69061;52.236;5.188;2023-05-03T11:54:50;102831.00;;;19.71;36.03
64908;BME280;69061;52.236;5.188;2023-05-03T11:57:17;102824.81;;;19.66;35.68
64908;BME280;69061;52.236;5.188;2023-05-03T11:59:44;102834.00;;;19.58;37.31
64908;BME280;69061;52.236;5.188;2023-05-03T12:02:12;102829.84;;;19.72;36.79
64908;BME280;69061;52.236;5.188;2023-05-03T12:04:40;102817.63;;;19.85;36.90
64908;BME280;69061;52.236;5.188;2023-05-03T12:07:10;102821.78;;;19.79;36.09
64908;BME280;69061;52.236;5.188;2023-05-03T12:09:38;102811.00;;;19.79;36.01
64908;BME280;69061;52.236;5.188;2023-05-03T12:12:05;102799.53;;;19.89;35.59
64908;BME280;69061;52.236;5.188;2023-05-03T12:14:56;102805.59;;;19.79;36.06
64908;BME280;69061;52.236;5.188;2023-05-03T12:17:32;102802.59;;;19.91;37.22
64908;BME280;69061;52.236;5.188;2023-05-03T12:20:16;102799.56;;;20.00;34.42
64908;BME280;69061;52.236;5.188;2023-05-03T12:22:46;102792.53;;;19.84;37.06
64908;BME280;69061;52.236;5.188;2023-05-03T12:25:13;102803.03;;;20.08;37.09
64908;BME280;69061;52.236;5.188;2023-05-03T12:27:40;102792.28;;;20.22;37.06
64908;BME280;69061;52.236;5.188;2023-05-03T12:30:07;102801.94;;;20.27;35.93
64908;BME280;69061;52.236;5.188;2023-05-03T12:32:34;102795.41;;;20.31;35.42
64908;BME280;69061;52.236;5.188;2023-05-03T12:35:02;102774.16;;;20.26;34.46
64908;BME280;69061;52.236;5.188;2023-05-03T12:37:29;102778.03;;;20.29;36.15
64908;BME280;69061;52.236;5.188;2023-05-03T12:39:57;102780.38;;;20.34;35.20
64908;BME280;69061;52.236;5.188;2023-05-03T12:42:24;102774.97;;;20.41;34.84
64908;BME280;69061;52.236;5.188;2023-05-03T12:44:51;102761.09;;;20.39;34.29
64908;BME280;69061;52.236;5.188;2023-05-03T12:47:18;102763.00;;;20.39;33.89
64908;BME280;69061;52.236;5.188;2023-05-03T12:49:44;102766.06;;;20.33;34.82
64908;BME280;69061;52.236;5.188;2023-05-03T12:52:11;102752.59;;;20.37;35.36
64908;BME280;69061;52.236;5.188;2023-05-03T12:54:38;102762.59;;;20.29;34.53
64908;BME280;69061;52.236;5.188;2023-05-03T12:57:07;102760.31;;;20.24;34.45
64908;BME280;69061;52.236;5.188;2023-05-03T12:59:34;102745.63;;;20.22;35.85
64908;BME280;69061;52.236;5.188;2023-05-03T13:02:01;102739.84;;;20.27;35.90